Time,TemperatureF,DewpointF,PressureIn,WindDirection,WindDirectionDegrees,WindSpeedMPH,WindSpeedGustMPH,Humidity,HourlyPrecipIn,Conditions,Clouds,dailyrainin,SolarRadiationWatts/m^2,SoftwareType,DateUTC
2013-11-11 00:04:00,39.6,39.6,30.22,NW,318,2.0,-999.0,100,0.00,,,0.00,0,WeatherHawk,2013-11-11 08:04:00,
2013-11-11 00:09:00,39.4,39.4,30.22,NW,319,0.0,-999.0,100,0.00,,,0.00,0,WeatherHawk,2013-11-11 08:09:00,
2013-11-11 00:14:00,39.6,39.6,30.22,WSW,249,0.0,-999.0,100,0.00,,,0.00,0,WeatherHawk,2013-11-11 08:14:00,
2013-11-11 00:19:00,39.5,39.5,30.23,WSW,249,0.0,-999.0,100,0.00,,,0.00,0,WeatherHawk,2013-11-11 08:19:00,
2013-11-11 00:24:00,39.6,39.6,30.23,WSW,249,0.0,-999.0,100,0.00,,,0.00,1,WeatherHawk,2013-11-11 08:24:00,
2013-11-11 00:29:00,39.8,39.8,30.22,WSW,249,0.0,-999.0,100,0.00,,,0.00,0,WeatherHawk,2013-11-11 08:29:00,
2013-11-11 00:34:00,39.1,39.1,30.22,NW,319,0.0,-999.0,100,0.00,,,0.00,0,WeatherHawk,2013-11-11 08:34:00,
2013-11-11 00:39:00,39.6,39.6,30.22,ENE,73,0.0,-999.0,100,0.00,,,0.00,0,WeatherHawk,2013-11-11 08:39:00,
2013-11-11 00:44:00,39.5,39.5,30.23,ENE,73,0.0,-999.0,100,0.00,,,0.00,0,WeatherHawk,2013-11-11 08:44:00,
2013-11-11 00:49:00,39.7,39.7,30.22,WNW,301,0.0,-999.0,100,0.00,,,0.00,0,WeatherHawk,2013-11-11 08:49:00,
2013-11-11 00:54:00,39.3,39.3,30.23,NW,323,0.0,-999.0,100,0.00,,,0.00,0,WeatherHawk,2013-11-11 08:54:00,
2013-11-11 00:59:00,39.2,39.2,30.23,North,349,0.0,-999.0,100,0.00,,,0.00,0,WeatherHawk,2013-11-11 08:59:00,
2013-11-11 01:04:00,39.2,39.2,30.23,NNW,329,3.0,-999.0,100,0.00,,,0.00,1,WeatherHawk,2013-11-11 09:04:00,
2013-11-11 01:09:00,39.1,39.1,30.23,WNW,287,0.0,-999.0,100,0.00,,,0.00,0,WeatherHawk,2013-11-11 09:09:00,
2013-11-11 01:14:00,39.0,39.0,30.23,West,262,0.0,-999.0,100,0.00,,,0.00,1,WeatherHawk,2013-11-11 09:14:00,
2013-11-11 01:19:00,38.8,38.8,30.23,NNW,338,0.0,-999.0,100,0.00,,,0.00,0,WeatherHawk,2013-11-11 09:19:00,
2013-11-11 01:24:00,38.8,38.8,30.23,NW,325,2.0,-999.0,100,0.00,,,0.00,0,WeatherHawk,2013-11-11 09:24:00,
2013-11-11 01:29:00,38.7,38.7,30.24,West,269,1.0,-999.0,100,0.00,,,0.00,0,WeatherHawk,2013-11-11 09:29:00,
2013-11-11 01:34:00,38.6,38.6,30.24,West,269,0.0,-999.0,100,0.00,,,0.00,0,WeatherHawk,2013-11-11 09:34:00,
2013-11-11 01:39:00,38.6,38.6,30.24,NNE,25,0.0,-999.0,100,0.00,,,0.00,0,WeatherHawk,2013-11-11 09:39:00,
2013-11-11 01:44:00,38.6,38.6,30.24,NNW,328,0.0,-999.0,100,0.00,,,0.00,0,WeatherHawk,2013-11-11 09:44:00,
2013-11-11 01:49:00,38.6,38.6,30.24,NNW,334,0.0,-999.0,100,0.00,,,0.00,0,WeatherHawk,2013-11-11 09:49:00,
2013-11-11 01:54:00,38.6,38.6,30.24,North,8,0.0,-999.0,100,0.00,,,0.00,1,WeatherHawk,2013-11-11 09:54:00,
2013-11-11 01:59:00,38.4,38.4,30.24,NW,326,2.0,-999.0,100,0.00,,,0.00,0,WeatherHawk,2013-11-11 09:59:00,
2013-11-11 02:04:00,38.5,38.5,30.24,NW,326,0.0,-999.0,100,0.00,,,0.00,0,WeatherHawk,2013-11-11 10:04:00,
2013-11-11 02:09:00,38.5,38.5,30.24,NW,326,0.0,-999.0,100,0.00,,,0.00,0,WeatherHawk,2013-11-11 10:09:00,
2013-11-11 02:14:00,38.5,38.5,30.24,NW,326,0.0,-999.0,100,0.00,,,0.00,0,WeatherHawk,2013-11-11 10:14:00,
2013-11-11 02:19:00,38.6,38.6,30.24,SE,145,1.0,-999.0,100,0.00,,,0.00,0,WeatherHawk,2013-11-11 10:19:00,
2013-11-11 02:24:00,39.0,39.0,30.25,West,268,0.0,-999.0,100,0.00,,,0.00,0,WeatherHawk,2013-11-11 10:24:00,
2013-11-11 02:29:00,39.2,39.2,30.24,North,5,3.0,-999.0,100,0.00,,,0.00,0,WeatherHawk,2013-11-11 10:29:00,
2013-11-11 02:34:00,38.8,38.8,30.25,NNW,343,2.0,-999.0,100,0.00,,,0.00,0,WeatherHawk,2013-11-11 10:34:00,
2013-11-11 02:39:00,38.7,38.7,30.24,NW,318,0.0,-999.0,100,0.00,,,0.00,0,WeatherHawk,2013-11-11 10:39:00,
2013-11-11 02:44:00,38.7,38.7,30.25,North,8,0.0,-999.0,100,0.00,,,0.00,0,WeatherHawk,2013-11-11 10:44:00,
2013-11-11 02:49:00,38.7,38.5,30.25,North,8,0.0,-999.0,99,0.00,,,0.00,0,WeatherHawk,2013-11-11 10:49:00,
2013-11-11 02:54:00,38.8,38.6,30.25,North,8,0.0,-999.0,99,0.00,,,0.00,0,WeatherHawk,2013-11-11 10:54:00,
2013-11-11 02:59:00,38.8,38.6,30.24,North,8,0.0,-999.0,99,0.00,,,0.00,0,WeatherHawk,2013-11-11 10:59:00,
2013-11-11 03:04:00,38.9,38.6,30.25,North,8,0.0,-999.0,99,0.00,,,0.00,1,WeatherHawk,2013-11-11 11:04:00,
2013-11-11 03:09:00,38.9,38.6,30.24,North,8,0.0,-999.0,99,0.00,,,0.00,0,WeatherHawk,2013-11-11 11:09:00,
2013-11-11 03:14:00,39.2,39.0,30.24,North,8,0.0,-999.0,99,0.00,,,0.00,0,WeatherHawk,2013-11-11 11:14:00,
2013-11-11 03:19:00,39.3,39.0,30.24,North,8,0.0,-999.0,99,0.00,,,0.00,0,WeatherHawk,2013-11-11 11:19:00,
2013-11-11 03:24:00,39.4,39.1,30.24,NE,44,3.0,-999.0,99,0.00,,,0.00,0,WeatherHawk,2013-11-11 11:24:00,
2013-11-11 03:29:00,39.4,39.1,30.24,ENE,64,0.0,-999.0,99,0.00,,,0.00,0,WeatherHawk,2013-11-11 11:29:00,
2013-11-11 03:34:00,39.3,38.8,30.25,NE,43,0.0,-999.0,98,0.00,,,0.00,0,WeatherHawk,2013-11-11 11:34:00,
2013-11-11 03:39:00,39.2,38.7,30.25,NE,39,3.0,-999.0,98,0.00,,,0.00,0,WeatherHawk,2013-11-11 11:39:00,
2013-11-11 03:44:00,39.2,38.7,30.25,NE,35,2.0,-999.0,98,0.00,,,0.00,0,WeatherHawk,2013-11-11 11:44:00,
2013-11-11 03:49:00,39.1,38.9,30.25,NNW,344,4.0,-999.0,99,0.00,,,0.00,0,WeatherHawk,2013-11-11 11:49:00,
2013-11-11 03:54:00,39.1,38.8,30.25,NNW,347,0.0,-999.0,99,0.00,,,0.00,0,WeatherHawk,2013-11-11 11:54:00,
2013-11-11 03:59:00,39.1,39.1,30.25,NNW,348,2.0,-999.0,100,0.00,,,0.00,0,WeatherHawk,2013-11-11 11:59:00,
2013-11-11 04:04:00,39.1,39.1,30.26,North,10,3.0,-999.0,100,0.00,,,0.00,0,WeatherHawk,2013-11-11 12:04:00,
2013-11-11 04:09:00,39.1,39.1,30.26,North,6,3.0,-999.0,100,0.00,,,0.00,0,WeatherHawk,2013-11-11 12:09:00,
2013-11-11 04:14:00,39.1,39.1,30.26,NNE,21,1.0,-999.0,100,0.00,,,0.00,0,WeatherHawk,2013-11-11 12:14:00,
2013-11-11 04:19:00,39.1,39.1,30.26,North,9,4.0,-999.0,100,0.00,,,0.00,0,WeatherHawk,2013-11-11 12:19:00,
2013-11-11 04:24:00,39.1,39.1,30.26,NNE,28,5.0,-999.0,100,0.00,,,0.00,0,WeatherHawk,2013-11-11 12:24:00,
2013-11-11 04:29:00,39.1,39.1,30.26,North,3,7.0,-999.0,100,0.00,,,0.00,0,WeatherHawk,2013-11-11 12:29:00,
2013-11-11 04:34:00,39.1,39.1,30.27,North,1,7.0,-999.0,100,0.00,,,0.00,0,WeatherHawk,2013-11-11 12:34:00,
2013-11-11 04:39:00,39.1,39.1,30.28,NNE,12,3.0,-999.0,100,0.00,,,0.00,0,WeatherHawk,2013-11-11 12:39:00,
2013-11-11 04:44:00,39.0,39.0,30.28,North,3,5.0,-999.0,100,0.00,,,0.00,0,WeatherHawk,2013-11-11 12:44:00,
2013-11-11 04:49:00,39.1,39.1,30.28,North,351,7.0,-999.0,100,0.00,,,0.00,1,WeatherHawk,2013-11-11 12:49:00,
2013-11-11 04:54:00,39.2,39.2,30.28,NE,39,9.0,-999.0,100,0.00,,,0.00,0,WeatherHawk,2013-11-11 12:54:00,
2013-11-11 04:59:00,39.1,39.1,30.28,North,11,8.0,-999.0,100,0.00,,,0.00,0,WeatherHawk,2013-11-11 12:59:00,
2013-11-11 05:04:00,39.1,39.1,30.28,NW,317,1.0,-999.0,100,0.00,,,0.00,0,WeatherHawk,2013-11-11 13:04:00,
2013-11-11 05:09:00,39.1,39.1,30.28,North,0,5.0,-999.0,100,0.00,,,0.00,0,WeatherHawk,2013-11-11 13:09:00,
2013-11-11 05:14:00,38.9,38.9,30.28,NNE,29,4.0,-999.0,100,0.00,,,0.00,1,WeatherHawk,2013-11-11 13:14:00,
2013-11-11 05:19:00,39.1,39.1,30.28,North,4,5.0,-999.0,100,0.00,,,0.00,0,WeatherHawk,2013-11-11 13:19:00,
2013-11-11 05:24:00,39.1,39.1,30.28,NW,309,2.0,-999.0,100,0.00,,,0.00,0,WeatherHawk,2013-11-11 13:24:00,
2013-11-11 05:29:00,39.0,39.0,30.28,NNE,15,7.0,-999.0,100,0.00,,,0.00,0,WeatherHawk,2013-11-11 13:29:00,
2013-11-11 05:34:00,39.0,39.0,30.28,NNE,23,6.0,-999.0,100,0.00,,,0.00,1,WeatherHawk,2013-11-11 13:34:00,
2013-11-11 05:39:00,39.1,39.1,30.28,NNE,16,0.0,-999.0,100,0.00,,,0.00,0,WeatherHawk,2013-11-11 13:39:00,
2013-11-11 05:44:00,39.0,39.0,30.28,North,4,7.0,-999.0,100,0.00,,,0.00,0,WeatherHawk,2013-11-11 13:44:00,
2013-11-11 05:49:00,39.0,39.0,30.28,NE,34,3.0,-999.0,100,0.00,,,0.00,0,WeatherHawk,2013-11-11 13:49:00,
2013-11-11 05:54:00,39.0,39.0,30.28,NE,52,0.0,-999.0,100,0.00,,,0.00,0,WeatherHawk,2013-11-11 13:54:00,
2013-11-11 05:59:00,39.0,39.0,30.29,NNW,347,0.0,-999.0,100,0.00,,,0.00,0,WeatherHawk,2013-11-11 13:59:00,
2013-11-11 06:04:00,39.1,39.1,30.29,North,350,1.0,-999.0,100,0.00,,,0.00,1,WeatherHawk,2013-11-11 14:04:00,
2013-11-11 06:09:00,39.1,39.1,30.29,NW,318,1.0,-999.0,100,0.00,,,0.00,0,WeatherHawk,2013-11-11 14:09:00,
2013-11-11 06:14:00,39.0,39.0,30.29,North,351,2.0,-999.0,100,0.00,,,0.00,0,WeatherHawk,2013-11-11 14:14:00,
2013-11-11 06:19:00,39.1,39.1,30.30,North,8,2.0,-999.0,100,0.00,,,0.00,0,WeatherHawk,2013-11-11 14:19:00,
2013-11-11 06:24:00,39.2,39.2,30.30,NNW,341,3.0,-999.0,100,0.00,,,0.00,0,WeatherHawk,2013-11-11 14:24:00,
2013-11-11 06:29:00,39.2,39.2,30.29,North,0,0.0,-999.0,100,0.00,,,0.00,0,WeatherHawk,2013-11-11 14:29:00,
2013-11-11 06:34:00,39.2,39.2,30.29,North,349,0.0,-999.0,100,0.00,,,0.00,1,WeatherHawk,2013-11-11 14:34:00,
2013-11-11 06:39:00,39.2,39.2,30.30,WSW,244,0.0,-999.0,100,0.00,,,0.00,1,WeatherHawk,2013-11-11 14:39:00,
2013-11-11 06:44:00,39.1,39.1,30.29,WSW,244,0.0,-999.0,100,0.00,,,0.00,1,WeatherHawk,2013-11-11 14:44:00,
2013-11-11 06:49:00,39.1,39.1,30.29,WSW,244,0.0,-999.0,100,0.00,,,0.00,0,WeatherHawk,2013-11-11 14:49:00,
2013-11-11 06:54:00,39.2,39.2,30.29,WSW,244,0.0,-999.0,100,0.00,,,0.00,0,WeatherHawk,2013-11-11 14:54:00,
2013-11-11 06:59:00,39.2,39.2,30.30,WSW,244,0.0,-999.0,100,0.00,,,0.00,0,WeatherHawk,2013-11-11 14:59:00,
2013-11-11 07:04:00,39.2,39.2,30.30,WSW,244,0.0,-999.0,100,0.00,,,0.00,0,WeatherHawk,2013-11-11 15:04:00,
2013-11-11 07:09:00,39.4,39.4,30.30,WSW,238,0.0,-999.0,100,0.00,,,0.00,2,WeatherHawk,2013-11-11 15:09:00,
2013-11-11 07:14:00,39.4,39.4,30.30,WSW,238,0.0,-999.0,100,0.00,,,0.00,1,WeatherHawk,2013-11-11 15:14:00,
2013-11-11 07:19:00,39.5,39.5,30.31,WSW,238,0.0,-999.0,100,0.00,,,0.00,2,WeatherHawk,2013-11-11 15:19:00,
2013-11-11 07:24:00,39.5,39.5,30.30,WSW,238,0.0,-999.0,100,0.00,,,0.00,3,WeatherHawk,2013-11-11 15:24:00,
2013-11-11 07:29:00,39.5,39.5,30.31,WSW,238,0.0,-999.0,100,0.00,,,0.00,2,WeatherHawk,2013-11-11 15:29:00,
2013-11-11 07:34:00,39.6,39.6,30.31,SW,217,0.0,-999.0,100,0.00,,,0.00,5,WeatherHawk,2013-11-11 15:34:00,
2013-11-11 07:39:00,39.7,39.4,30.31,WSW,252,0.0,-999.0,99,0.00,,,0.00,6,WeatherHawk,2013-11-11 15:39:00,
2013-11-11 07:44:00,39.7,39.2,30.31,WSW,250,0.0,-999.0,98,0.00,,,0.00,8,WeatherHawk,2013-11-11 15:44:00,
2013-11-11 07:49:00,39.7,38.9,30.31,WSW,250,0.0,-999.0,97,0.00,,,0.00,7,WeatherHawk,2013-11-11 15:49:00,
2013-11-11 07:54:00,39.8,38.8,30.31,WSW,250,0.0,-999.0,96,0.00,,,0.00,10,WeatherHawk,2013-11-11 15:54:00,
2013-11-11 07:59:00,39.6,38.6,30.31,WSW,250,0.0,-999.0,96,0.00,,,0.00,12,WeatherHawk,2013-11-11 15:59:00,
2013-11-11 08:04:00,39.4,38.4,30.31,NNW,343,0.0,-999.0,96,0.00,,,0.00,10,WeatherHawk,2013-11-11 16:04:00,
2013-11-11 08:09:00,39.3,38.5,30.31,West,265,2.0,-999.0,97,0.00,,,0.00,15,WeatherHawk,2013-11-11 16:09:00,
2013-11-11 08:14:00,39.5,39.0,30.31,West,264,0.0,-999.0,98,0.00,,,0.00,17,WeatherHawk,2013-11-11 16:14:00,
2013-11-11 08:19:00,39.3,39.0,30.32,West,265,0.0,-999.0,99,0.00,,,0.00,26,WeatherHawk,2013-11-11 16:19:00,
2013-11-11 08:24:00,39.3,39.3,30.31,WSW,252,0.0,-999.0,100,0.00,,,0.00,31,WeatherHawk,2013-11-11 16:24:00,
2013-11-11 08:29:00,39.4,39.4,30.31,WSW,252,0.0,-999.0,100,0.00,,,0.00,32,WeatherHawk,2013-11-11 16:29:00,
2013-11-11 08:34:00,39.5,39.5,30.32,WSW,252,0.0,-999.0,100,0.00,,,0.00,46,WeatherHawk,2013-11-11 16:34:00,
2013-11-11 08:39:00,39.9,39.9,30.31,WSW,252,0.0,-999.0,100,0.00,,,0.00,44,WeatherHawk,2013-11-11 16:39:00,
2013-11-11 08:44:00,39.9,39.9,30.31,WSW,252,0.0,-999.0,100,0.00,,,0.00,50,WeatherHawk,2013-11-11 16:44:00,
2013-11-11 08:49:00,40.3,40.3,30.31,WSW,252,0.0,-999.0,100,0.00,,,0.00,40,WeatherHawk,2013-11-11 16:49:00,
2013-11-11 08:54:00,40.3,40.3,30.31,WSW,252,0.0,-999.0,100,0.00,,,0.00,37,WeatherHawk,2013-11-11 16:54:00,
2013-11-11 08:59:00,39.9,39.9,30.31,West,264,0.0,-999.0,100,0.00,,,0.00,35,WeatherHawk,2013-11-11 16:59:00,
2013-11-11 09:04:00,40.0,40.0,30.31,WNW,298,3.0,-999.0,100,0.00,,,0.00,39,WeatherHawk,2013-11-11 17:04:00,
2013-11-11 09:09:00,39.5,39.5,30.31,NW,306,0.0,-999.0,100,0.00,,,0.00,38,WeatherHawk,2013-11-11 17:09:00,
2013-11-11 09:14:00,39.7,39.7,30.32,SW,236,0.0,-999.0,100,0.00,,,0.00,42,WeatherHawk,2013-11-11 17:14:00,
2013-11-11 09:19:00,39.5,39.5,30.32,WSW,258,0.0,-999.0,100,0.00,,,0.00,50,WeatherHawk,2013-11-11 17:19:00,
2013-11-11 09:24:00,40.1,40.1,30.32,WSW,257,0.0,-999.0,100,0.00,,,0.00,46,WeatherHawk,2013-11-11 17:24:00,
2013-11-11 09:29:00,40.2,40.2,30.32,WSW,257,0.0,-999.0,100,0.00,,,0.00,50,WeatherHawk,2013-11-11 17:29:00,
2013-11-11 09:34:00,40.4,40.4,30.32,WSW,257,0.0,-999.0,100,0.00,,,0.00,52,WeatherHawk,2013-11-11 17:34:00,
2013-11-11 09:39:00,40.0,40.0,30.31,WSW,258,0.0,-999.0,100,0.00,,,0.00,56,WeatherHawk,2013-11-11 17:39:00,
2013-11-11 09:44:00,40.5,40.5,30.31,WSW,258,0.0,-999.0,100,0.00,,,0.00,65,WeatherHawk,2013-11-11 17:44:00,
2013-11-11 09:49:00,41.2,41.2,30.32,WSW,258,0.0,-999.0,100,0.00,,,0.00,76,WeatherHawk,2013-11-11 17:49:00,
2013-11-11 09:54:00,40.9,40.6,30.32,West,259,0.0,-999.0,99,0.00,,,0.00,73,WeatherHawk,2013-11-11 17:54:00,
2013-11-11 09:59:00,40.9,39.8,30.32,NNE,24,0.0,-999.0,96,0.00,,,0.00,56,WeatherHawk,2013-11-11 17:59:00,
2013-11-11 10:04:00,40.8,39.2,30.32,NNE,33,1.0,-999.0,94,0.00,,,0.00,71,WeatherHawk,2013-11-11 18:04:00,
2013-11-11 10:09:00,40.4,38.5,30.32,NE,51,2.0,-999.0,93,0.00,,,0.00,67,WeatherHawk,2013-11-11 18:09:00,
2013-11-11 10:14:00,40.6,38.7,30.32,NNE,30,0.0,-999.0,93,0.00,,,0.00,95,WeatherHawk,2013-11-11 18:14:00,
2013-11-11 10:19:00,41.5,39.3,30.32,NE,56,0.0,-999.0,92,0.00,,,0.00,116,WeatherHawk,2013-11-11 18:19:00,
2013-11-11 10:24:00,40.8,38.4,30.32,NE,38,4.0,-999.0,91,0.00,,,0.00,100,WeatherHawk,2013-11-11 18:24:00,
2013-11-11 10:29:00,40.7,38.0,30.32,East,83,4.0,-999.0,90,0.00,,,0.00,112,WeatherHawk,2013-11-11 18:29:00,
2013-11-11 10:34:00,40.9,38.5,30.31,ENE,59,2.0,-999.0,91,0.00,,,0.00,89,WeatherHawk,2013-11-11 18:34:00,
2013-11-11 10:39:00,40.7,37.8,30.31,NNE,32,2.0,-999.0,89,0.00,,,0.00,91,WeatherHawk,2013-11-11 18:39:00,
2013-11-11 10:44:00,41.4,37.5,30.31,ENE,74,0.0,-999.0,86,0.00,,,0.00,75,WeatherHawk,2013-11-11 18:44:00,
2013-11-11 10:49:00,41.5,37.9,30.32,ENE,74,0.0,-999.0,87,0.00,,,0.00,61,WeatherHawk,2013-11-11 18:49:00,
2013-11-11 10:54:00,41.5,37.3,30.32,ENE,74,0.0,-999.0,85,0.00,,,0.00,74,WeatherHawk,2013-11-11 18:54:00,
2013-11-11 10:59:00,42.0,37.3,30.32,ENE,75,0.0,-999.0,83,0.00,,,0.00,88,WeatherHawk,2013-11-11 18:59:00,
2013-11-11 11:04:00,42.1,36.4,30.32,North,11,0.0,-999.0,80,0.00,,,0.00,97,WeatherHawk,2013-11-11 19:04:00,
2013-11-11 11:09:00,41.3,35.0,30.32,North,7,0.0,-999.0,78,0.00,,,0.00,105,WeatherHawk,2013-11-11 19:09:00,
2013-11-11 11:14:00,41.6,34.6,30.31,NNE,12,3.0,-999.0,76,0.00,,,0.00,110,WeatherHawk,2013-11-11 19:14:00,
2013-11-11 11:19:00,41.9,34.9,30.31,NNW,336,2.0,-999.0,76,0.00,,,0.00,100,WeatherHawk,2013-11-11 19:19:00,
2013-11-11 11:24:00,41.7,35.6,30.32,North,0,1.0,-999.0,79,0.00,,,0.00,99,WeatherHawk,2013-11-11 19:24:00,
2013-11-11 11:29:00,42.1,35.7,30.31,NNW,329,0.0,-999.0,78,0.00,,,0.00,116,WeatherHawk,2013-11-11 19:29:00,
2013-11-11 11:34:00,42.3,34.9,30.31,NW,314,0.0,-999.0,75,0.00,,,0.00,120,WeatherHawk,2013-11-11 19:34:00,
2013-11-11 11:39:00,42.7,35.0,30.31,North,2,0.0,-999.0,74,0.00,,,0.00,139,WeatherHawk,2013-11-11 19:39:00,
2013-11-11 11:44:00,41.8,33.5,30.30,North,0,3.0,-999.0,72,0.00,,,0.00,143,WeatherHawk,2013-11-11 19:44:00,
2013-11-11 11:49:00,41.8,34.1,30.31,NNE,29,2.0,-999.0,74,0.00,,,0.00,131,WeatherHawk,2013-11-11 19:49:00,
2013-11-11 11:54:00,42.3,32.9,30.30,NNE,19,0.0,-999.0,69,0.00,,,0.00,131,WeatherHawk,2013-11-11 19:54:00,
2013-11-11 11:59:00,42.3,32.9,30.30,NNE,28,0.0,-999.0,69,0.00,,,0.00,146,WeatherHawk,2013-11-11 19:59:00,
2013-11-11 12:04:00,42.8,33.4,30.30,NNE,18,0.0,-999.0,69,0.00,,,0.00,152,WeatherHawk,2013-11-11 20:04:00,
2013-11-11 12:09:00,42.6,33.9,30.29,NE,56,0.0,-999.0,71,0.00,,,0.00,149,WeatherHawk,2013-11-11 20:09:00,
2013-11-11 12:14:00,42.2,33.5,30.29,NE,36,3.0,-999.0,71,0.00,,,0.00,146,WeatherHawk,2013-11-11 20:14:00,
2013-11-11 12:19:00,43.0,33.9,30.29,North,351,0.0,-999.0,70,0.00,,,0.00,147,WeatherHawk,2013-11-11 20:19:00,
2013-11-11 12:24:00,42.2,33.5,30.29,NNE,17,5.0,-999.0,71,0.00,,,0.00,134,WeatherHawk,2013-11-11 20:24:00,
2013-11-11 12:29:00,42.6,33.1,30.29,North,351,1.0,-999.0,69,0.00,,,0.00,126,WeatherHawk,2013-11-11 20:29:00,
2013-11-11 12:34:00,43.2,35.1,30.29,North,0,0.0,-999.0,73,0.00,,,0.00,124,WeatherHawk,2013-11-11 20:34:00,
2013-11-11 12:39:00,42.4,33.3,30.28,ENE,67,2.0,-999.0,70,0.00,,,0.00,120,WeatherHawk,2013-11-11 20:39:00,
2013-11-11 12:44:00,42.5,33.0,30.28,NNE,25,5.0,-999.0,69,0.00,,,0.00,120,WeatherHawk,2013-11-11 20:44:00,
2013-11-11 12:49:00,43.2,33.7,30.28,NE,46,2.0,-999.0,69,0.00,,,0.00,130,WeatherHawk,2013-11-11 20:49:00,
2013-11-11 12:54:00,42.3,32.2,30.28,NNE,20,4.0,-999.0,67,0.00,,,0.00,111,WeatherHawk,2013-11-11 20:54:00,
2013-11-11 12:59:00,42.7,33.2,30.28,NE,40,0.0,-999.0,69,0.00,,,0.00,123,WeatherHawk,2013-11-11 20:59:00,
2013-11-11 13:04:00,42.9,33.8,30.27,NNE,21,1.0,-999.0,70,0.00,,,0.00,105,WeatherHawk,2013-11-11 21:04:00,
2013-11-11 13:09:00,42.4,34.1,30.28,NNE,27,4.0,-999.0,72,0.00,,,0.00,78,WeatherHawk,2013-11-11 21:09:00,
2013-11-11 13:14:00,42.5,34.5,30.27,NNE,32,4.0,-999.0,73,0.00,,,0.00,87,WeatherHawk,2013-11-11 21:14:00,
2013-11-11 13:19:00,42.1,33.4,30.27,North,2,4.0,-999.0,71,0.00,,,0.00,69,WeatherHawk,2013-11-11 21:19:00,
2013-11-11 13:24:00,42.1,33.4,30.27,NE,35,3.0,-999.0,71,0.00,,,0.00,59,WeatherHawk,2013-11-11 21:24:00,
2013-11-11 13:29:00,42.4,33.6,30.27,East,80,3.0,-999.0,71,0.00,,,0.00,55,WeatherHawk,2013-11-11 21:29:00,
2013-11-11 13:34:00,42.2,33.5,30.27,North,7,1.0,-999.0,71,0.00,,,0.00,58,WeatherHawk,2013-11-11 21:34:00,
2013-11-11 13:39:00,42.4,33.0,30.27,NE,51,0.0,-999.0,69,0.00,,,0.00,69,WeatherHawk,2013-11-11 21:39:00,
2013-11-11 13:44:00,42.6,32.8,30.27,North,11,2.0,-999.0,68,0.00,,,0.00,85,WeatherHawk,2013-11-11 21:44:00,
2013-11-11 13:49:00,42.5,32.7,30.27,NE,52,1.0,-999.0,68,0.00,,,0.00,97,WeatherHawk,2013-11-11 21:49:00,
2013-11-11 13:54:00,43.0,32.8,30.27,NNE,24,0.0,-999.0,67,0.00,,,0.00,85,WeatherHawk,2013-11-11 21:54:00,
2013-11-11 13:59:00,42.5,31.9,30.26,ENE,66,0.0,-999.0,66,0.00,,,0.00,105,WeatherHawk,2013-11-11 21:59:00,
2013-11-11 14:04:00,43.2,33.0,30.26,North,0,2.0,-999.0,67,0.00,,,0.00,103,WeatherHawk,2013-11-11 22:04:00,
2013-11-11 14:09:00,43.1,31.8,30.27,North,2,4.0,-999.0,64,0.00,,,0.00,83,WeatherHawk,2013-11-11 22:09:00,
2013-11-11 14:14:00,42.7,31.4,30.26,NE,39,1.0,-999.0,64,0.00,,,0.00,63,WeatherHawk,2013-11-11 22:14:00,
2013-11-11 14:19:00,43.0,31.3,30.26,NNE,20,2.0,-999.0,63,0.00,,,0.00,52,WeatherHawk,2013-11-11 22:19:00,
2013-11-11 14:24:00,43.1,31.8,30.25,NE,38,0.0,-999.0,64,0.00,,,0.00,59,WeatherHawk,2013-11-11 22:24:00,
2013-11-11 14:29:00,43.1,32.1,30.25,NE,41,2.0,-999.0,65,0.00,,,0.00,91,WeatherHawk,2013-11-11 22:29:00,
2013-11-11 14:34:00,42.7,32.1,30.25,NE,41,6.0,-999.0,66,0.00,,,0.00,103,WeatherHawk,2013-11-11 22:34:00,
2013-11-11 14:39:00,43.1,32.9,30.25,NE,47,4.0,-999.0,67,0.00,,,0.00,102,WeatherHawk,2013-11-11 22:39:00,
2013-11-11 14:44:00,43.7,32.7,30.25,ENE,61,2.0,-999.0,65,0.00,,,0.00,100,WeatherHawk,2013-11-11 22:44:00,
2013-11-11 14:49:00,43.1,32.5,30.25,NNE,29,3.0,-999.0,66,0.00,,,0.00,92,WeatherHawk,2013-11-11 22:49:00,
2013-11-11 14:54:00,43.4,32.5,30.24,NE,45,2.0,-999.0,65,0.00,,,0.00,65,WeatherHawk,2013-11-11 22:54:00,
2013-11-11 14:59:00,42.8,31.9,30.24,East,80,3.0,-999.0,65,0.00,,,0.00,47,WeatherHawk,2013-11-11 22:59:00,
2013-11-11 15:04:00,42.8,31.9,30.25,ENE,59,0.0,-999.0,65,0.00,,,0.00,38,WeatherHawk,2013-11-11 23:04:00,
2013-11-11 15:09:00,42.9,32.0,30.24,NE,40,2.0,-999.0,65,0.00,,,0.00,49,WeatherHawk,2013-11-11 23:09:00,
2013-11-11 15:14:00,42.9,31.5,30.25,NE,41,1.0,-999.0,64,0.00,,,0.00,51,WeatherHawk,2013-11-11 23:14:00,
2013-11-11 15:19:00,42.8,31.9,30.25,NE,48,4.0,-999.0,65,0.00,,,0.00,35,WeatherHawk,2013-11-11 23:19:00,
2013-11-11 15:24:00,42.8,31.9,30.24,NE,39,4.0,-999.0,65,0.00,,,0.00,34,WeatherHawk,2013-11-11 23:24:00,
2013-11-11 15:29:00,42.8,31.4,30.24,East,87,4.0,-999.0,64,0.00,,,0.00,34,WeatherHawk,2013-11-11 23:29:00,
2013-11-11 15:34:00,42.8,31.8,30.24,NE,44,5.0,-999.0,65,0.00,,,0.00,33,WeatherHawk,2013-11-11 23:34:00,
2013-11-11 15:39:00,43.0,31.7,30.24,ENE,58,2.0,-999.0,64,0.00,,,0.00,24,WeatherHawk,2013-11-11 23:39:00,
2013-11-11 15:44:00,42.9,31.5,30.25,NNE,23,3.0,-999.0,64,0.00,,,0.00,18,WeatherHawk,2013-11-11 23:44:00,
2013-11-11 15:49:00,42.8,32.2,30.24,ENE,78,1.0,-999.0,66,0.00,,,0.00,18,WeatherHawk,2013-11-11 23:49:00,
2013-11-11 15:54:00,42.8,31.5,30.24,East,89,2.0,-999.0,64,0.00,,,0.00,15,WeatherHawk,2013-11-11 23:54:00,
2013-11-11 15:59:00,42.7,30.6,30.24,ENE,74,0.0,-999.0,62,0.00,,,0.00,15,WeatherHawk,2013-11-11 23:59:00,
2013-11-11 16:04:00,42.6,31.3,30.24,ENE,61,0.0,-999.0,64,0.00,,,0.00,13,WeatherHawk,2013-11-12 00:04:00,
2013-11-11 16:09:00,42.5,31.6,30.25,ENE,72,2.0,-999.0,65,0.00,,,0.00,10,WeatherHawk,2013-11-12 00:09:00,
2013-11-11 16:14:00,42.5,31.2,30.24,ENE,76,1.0,-999.0,64,0.00,,,0.00,6,WeatherHawk,2013-11-12 00:14:00,
2013-11-11 16:19:00,42.5,31.6,30.24,East,98,1.0,-999.0,65,0.00,,,0.00,5,WeatherHawk,2013-11-12 00:19:00,
2013-11-11 16:24:00,42.4,31.9,30.25,East,79,1.0,-999.0,66,0.00,,,0.00,5,WeatherHawk,2013-11-12 00:24:00,
2013-11-11 16:29:00,42.4,31.9,30.26,ESE,105,3.0,-999.0,66,0.00,,,0.00,4,WeatherHawk,2013-11-12 00:29:00,
2013-11-11 16:34:00,42.4,32.2,30.26,East,87,0.0,-999.0,67,0.00,,,0.00,1,WeatherHawk,2013-11-12 00:34:00,
2013-11-11 16:39:00,42.4,32.2,30.25,East,97,1.0,-999.0,67,0.00,,,0.00,0,WeatherHawk,2013-11-12 00:39:00,
2013-11-11 16:44:00,42.3,32.5,30.25,ESE,115,2.0,-999.0,68,0.00,,,0.00,0,WeatherHawk,2013-11-12 00:44:00,
2013-11-11 16:49:00,42.2,32.4,30.25,NE,55,5.0,-999.0,68,0.00,,,0.00,0,WeatherHawk,2013-11-12 00:49:00,
2013-11-11 16:54:00,42.1,32.3,30.25,North,4,0.0,-999.0,68,0.00,,,0.00,0,WeatherHawk,2013-11-12 00:54:00,
2013-11-11 16:59:00,42.1,32.7,30.25,NNE,33,0.0,-999.0,69,0.00,,,0.00,0,WeatherHawk,2013-11-12 00:59:00,
2013-11-11 17:04:00,42.1,32.3,30.26,ENE,63,0.0,-999.0,68,0.00,,,0.00,0,WeatherHawk,2013-11-12 01:04:00,
2013-11-11 17:09:00,42.0,32.6,30.26,ENE,64,3.0,-999.0,69,0.00,,,0.00,0,WeatherHawk,2013-11-12 01:09:00,
2013-11-11 17:14:00,42.1,32.7,30.26,NE,39,0.0,-999.0,69,0.00,,,0.00,0,WeatherHawk,2013-11-12 01:14:00,
2013-11-11 17:19:00,42.0,32.9,30.26,East,80,1.0,-999.0,70,0.00,,,0.00,0,WeatherHawk,2013-11-12 01:19:00,
2013-11-11 17:24:00,41.9,33.2,30.26,ENE,58,3.0,-999.0,71,0.00,,,0.00,0,WeatherHawk,2013-11-12 01:24:00,
2013-11-11 17:29:00,41.8,33.1,30.25,ENE,74,3.0,-999.0,71,0.00,,,0.00,0,WeatherHawk,2013-11-12 01:29:00,
2013-11-11 17:34:00,41.7,33.4,30.25,ENE,61,2.0,-999.0,72,0.00,,,0.00,0,WeatherHawk,2013-11-12 01:34:00,
2013-11-11 17:39:00,41.7,33.3,30.25,ENE,75,4.0,-999.0,72,0.00,,,0.00,0,WeatherHawk,2013-11-12 01:39:00,
2013-11-11 17:44:00,41.6,33.3,30.24,ENE,64,0.0,-999.0,72,0.00,,,0.00,0,WeatherHawk,2013-11-12 01:44:00,
2013-11-11 17:49:00,41.6,33.3,30.25,SSE,157,1.0,-999.0,72,0.00,,,0.00,0,WeatherHawk,2013-11-12 01:49:00,
2013-11-11 17:54:00,41.7,33.3,30.26,ESE,122,4.0,-999.0,72,0.00,,,0.00,0,WeatherHawk,2013-11-12 01:54:00,
2013-11-11 17:59:00,41.6,33.2,30.26,East,94,4.0,-999.0,72,0.00,,,0.00,0,WeatherHawk,2013-11-12 01:59:00,
2013-11-11 18:04:00,41.5,33.2,30.26,ENE,71,6.0,-999.0,72,0.00,,,0.00,0,WeatherHawk,2013-11-12 02:04:00,
2013-11-11 18:09:00,41.4,33.4,30.26,ENE,70,5.0,-999.0,73,0.00,,,0.00,0,WeatherHawk,2013-11-12 02:09:00,
2013-11-11 18:14:00,41.4,33.1,30.26,ENE,61,5.0,-999.0,72,0.00,,,0.00,0,WeatherHawk,2013-11-12 02:14:00,
2013-11-11 18:19:00,41.6,32.9,30.25,ENE,75,4.0,-999.0,71,0.00,,,0.00,1,WeatherHawk,2013-11-12 02:19:00,
2013-11-11 18:24:00,41.3,32.7,30.25,NE,54,4.0,-999.0,71,0.00,,,0.00,0,WeatherHawk,2013-11-12 02:24:00,
2013-11-11 18:29:00,41.3,32.9,30.26,ENE,62,5.0,-999.0,72,0.00,,,0.00,0,WeatherHawk,2013-11-12 02:29:00,
2013-11-11 18:34:00,41.3,33.0,30.26,ENE,69,5.0,-999.0,72,0.00,,,0.00,0,WeatherHawk,2013-11-12 02:34:00,
2013-11-11 18:39:00,41.3,32.6,30.26,ENE,64,5.0,-999.0,71,0.00,,,0.00,0,WeatherHawk,2013-11-12 02:39:00,
2013-11-11 18:44:00,41.3,32.3,30.26,ENE,77,5.0,-999.0,70,0.00,,,0.00,0,WeatherHawk,2013-11-12 02:44:00,
2013-11-11 18:49:00,41.3,31.9,30.26,ENE,66,3.0,-999.0,69,0.00,,,0.00,0,WeatherHawk,2013-11-12 02:49:00,
2013-11-11 18:54:00,41.3,32.3,30.27,East,81,4.0,-999.0,70,0.00,,,0.00,0,WeatherHawk,2013-11-12 02:54:00,
2013-11-11 18:59:00,41.3,32.3,30.26,ENE,76,3.0,-999.0,70,0.00,,,0.00,0,WeatherHawk,2013-11-12 02:59:00,
2013-11-11 19:04:00,41.2,32.2,30.26,East,101,0.0,-999.0,70,0.00,,,0.00,0,WeatherHawk,2013-11-12 03:04:00,
2013-11-11 19:09:00,41.2,32.1,30.26,ESE,102,0.0,-999.0,70,0.00,,,0.00,1,WeatherHawk,2013-11-12 03:09:00,
2013-11-11 19:14:00,41.2,32.1,30.26,ESE,102,0.0,-999.0,70,0.00,,,0.00,0,WeatherHawk,2013-11-12 03:14:00,
2013-11-11 19:19:00,41.1,32.1,30.26,ESE,102,0.0,-999.0,70,0.00,,,0.00,0,WeatherHawk,2013-11-12 03:19:00,
2013-11-11 19:24:00,41.1,32.4,30.27,ESE,103,0.0,-999.0,71,0.00,,,0.00,0,WeatherHawk,2013-11-12 03:24:00,
2013-11-11 19:29:00,41.2,32.5,30.26,East,88,0.0,-999.0,71,0.00,,,0.00,0,WeatherHawk,2013-11-12 03:29:00,
2013-11-11 19:34:00,41.2,32.2,30.26,ENE,60,0.0,-999.0,70,0.00,,,0.00,0,WeatherHawk,2013-11-12 03:34:00,
2013-11-11 19:39:00,41.2,32.2,30.27,ENE,60,0.0,-999.0,70,0.00,,,0.00,0,WeatherHawk,2013-11-12 03:39:00,
2013-11-11 19:44:00,41.1,32.4,30.27,ESE,104,0.0,-999.0,71,0.00,,,0.00,0,WeatherHawk,2013-11-12 03:44:00,
2013-11-11 19:49:00,41.1,32.5,30.27,NNE,25,0.0,-999.0,71,0.00,,,0.00,0,WeatherHawk,2013-11-12 03:49:00,
2013-11-11 19:54:00,41.1,32.7,30.27,SSE,151,0.0,-999.0,72,0.00,,,0.00,0,WeatherHawk,2013-11-12 03:54:00,
2013-11-11 19:59:00,41.1,32.8,30.27,SSE,151,0.0,-999.0,72,0.00,,,0.00,1,WeatherHawk,2013-11-12 03:59:00,
2013-11-11 20:04:00,41.2,32.9,30.26,SSE,151,0.0,-999.0,72,0.00,,,0.00,0,WeatherHawk,2013-11-12 04:04:00,
2013-11-11 20:09:00,41.2,33.2,30.26,SSE,151,1.0,-999.0,73,0.00,,,0.00,0,WeatherHawk,2013-11-12 04:09:00,
2013-11-11 20:14:00,41.2,32.9,30.26,SSE,149,0.0,-999.0,72,0.00,,,0.00,0,WeatherHawk,2013-11-12 04:14:00,
2013-11-11 20:19:00,41.4,33.0,30.26,ESE,111,0.0,-999.0,72,0.00,,,0.00,0,WeatherHawk,2013-11-12 04:19:00,
2013-11-11 20:24:00,41.3,32.9,30.26,ESE,118,0.0,-999.0,72,0.00,,,0.00,0,WeatherHawk,2013-11-12 04:24:00,
2013-11-11 20:29:00,41.1,32.8,30.26,ESE,118,0.0,-999.0,72,0.00,,,0.00,1,WeatherHawk,2013-11-12 04:29:00,
2013-11-11 20:34:00,41.1,32.8,30.26,ESE,118,0.0,-999.0,72,0.00,,,0.00,0,WeatherHawk,2013-11-12 04:34:00,
2013-11-11 20:39:00,41.0,33.0,30.26,East,99,0.0,-999.0,73,0.00,,,0.00,0,WeatherHawk,2013-11-12 04:39:00,
2013-11-11 20:44:00,41.1,33.1,30.26,East,99,0.0,-999.0,73,0.00,,,0.00,0,WeatherHawk,2013-11-12 04:44:00,
2013-11-11 20:49:00,41.0,33.0,30.25,East,99,0.0,-999.0,73,0.00,,,0.00,0,WeatherHawk,2013-11-12 04:49:00,
2013-11-11 20:54:00,41.0,33.1,30.26,East,99,0.0,-999.0,73,0.00,,,0.00,0,WeatherHawk,2013-11-12 04:54:00,
2013-11-11 20:59:00,41.0,33.1,30.26,East,99,0.0,-999.0,73,0.00,,,0.00,1,WeatherHawk,2013-11-12 04:59:00,
2013-11-11 21:04:00,41.1,32.7,30.25,East,99,0.0,-999.0,72,0.00,,,0.00,0,WeatherHawk,2013-11-12 05:04:00,
2013-11-11 21:09:00,41.0,33.1,30.26,East,99,0.0,-999.0,73,0.00,,,0.00,0,WeatherHawk,2013-11-12 05:09:00,
2013-11-11 21:14:00,40.9,33.0,30.26,East,99,0.0,-999.0,73,0.00,,,0.00,0,WeatherHawk,2013-11-12 05:14:00,
2013-11-11 21:19:00,40.9,33.2,30.26,East,99,0.0,-999.0,74,0.00,,,0.00,0,WeatherHawk,2013-11-12 05:19:00,
2013-11-11 21:24:00,40.9,33.6,30.26,East,99,0.0,-999.0,75,0.00,,,0.00,0,WeatherHawk,2013-11-12 05:24:00,
2013-11-11 21:29:00,40.8,33.5,30.25,East,99,0.0,-999.0,75,0.00,,,0.00,0,WeatherHawk,2013-11-12 05:29:00,
2013-11-11 21:34:00,41.0,33.3,30.25,East,99,0.0,-999.0,74,0.00,,,0.00,0,WeatherHawk,2013-11-12 05:34:00,
2013-11-11 21:39:00,41.0,33.4,30.25,East,99,0.0,-999.0,74,0.00,,,0.00,0,WeatherHawk,2013-11-12 05:39:00,
2013-11-11 21:44:00,41.0,33.4,30.25,East,99,0.0,-999.0,74,0.00,,,0.00,0,WeatherHawk,2013-11-12 05:44:00,
2013-11-11 21:49:00,41.0,33.4,30.25,East,99,0.0,-999.0,74,0.00,,,0.00,0,WeatherHawk,2013-11-12 05:49:00,
2013-11-11 21:54:00,40.9,33.3,30.25,East,99,0.0,-999.0,74,0.00,,,0.00,0,WeatherHawk,2013-11-12 05:54:00,
2013-11-11 21:59:00,40.8,33.2,30.25,East,99,0.0,-999.0,74,0.00,,,0.00,0,WeatherHawk,2013-11-12 05:59:00,
2013-11-11 22:04:00,40.8,33.5,30.25,East,99,0.0,-999.0,75,0.00,,,0.00,0,WeatherHawk,2013-11-12 06:04:00,
2013-11-11 22:09:00,41.0,33.3,30.25,East,99,0.0,-999.0,74,0.00,,,0.00,0,WeatherHawk,2013-11-12 06:09:00,
2013-11-11 22:14:00,40.9,33.6,30.25,East,99,0.0,-999.0,75,0.00,,,0.00,0,WeatherHawk,2013-11-12 06:14:00,
2013-11-11 22:19:00,40.9,33.6,30.25,East,99,0.0,-999.0,75,0.00,,,0.00,0,WeatherHawk,2013-11-12 06:19:00,
2013-11-11 22:24:00,40.9,33.5,30.25,East,99,0.0,-999.0,75,0.00,,,0.00,0,WeatherHawk,2013-11-12 06:24:00,
2013-11-11 22:29:00,40.8,33.8,30.24,East,99,0.0,-999.0,76,0.00,,,0.00,0,WeatherHawk,2013-11-12 06:29:00,
2013-11-11 22:34:00,40.6,33.9,30.25,East,99,0.0,-999.0,77,0.00,,,0.00,0,WeatherHawk,2013-11-12 06:34:00,
2013-11-11 22:39:00,40.8,34.2,30.25,East,99,0.0,-999.0,77,0.00,,,0.00,0,WeatherHawk,2013-11-12 06:39:00,
2013-11-11 22:44:00,40.4,33.8,30.25,East,99,0.0,-999.0,77,0.00,,,0.00,0,WeatherHawk,2013-11-12 06:44:00,
2013-11-11 22:49:00,40.9,34.2,30.25,East,99,0.0,-999.0,77,0.00,,,0.00,0,WeatherHawk,2013-11-12 06:49:00,
2013-11-11 22:54:00,40.8,33.9,30.24,East,99,0.0,-999.0,76,0.00,,,0.00,0,WeatherHawk,2013-11-12 06:54:00,
2013-11-11 22:59:00,40.9,33.9,30.25,East,99,0.0,-999.0,76,0.00,,,0.00,0,WeatherHawk,2013-11-12 06:59:00,
2013-11-11 23:04:00,40.6,34.0,30.25,East,99,0.0,-999.0,77,0.00,,,0.00,0,WeatherHawk,2013-11-12 07:04:00,
2013-11-11 23:09:00,40.6,34.3,30.25,East,99,0.0,-999.0,78,0.00,,,0.00,1,WeatherHawk,2013-11-12 07:09:00,
2013-11-11 23:14:00,40.6,34.2,30.25,East,99,0.0,-999.0,78,0.00,,,0.00,0,WeatherHawk,2013-11-12 07:14:00,
2013-11-11 23:19:00,40.8,34.4,30.25,East,99,0.0,-999.0,78,0.00,,,0.00,0,WeatherHawk,2013-11-12 07:19:00,
2013-11-11 23:24:00,40.8,34.2,30.25,East,99,0.0,-999.0,77,0.00,,,0.00,0,WeatherHawk,2013-11-12 07:24:00,
2013-11-11 23:29:00,40.8,34.5,30.25,East,99,0.0,-999.0,78,0.00,,,0.00,1,WeatherHawk,2013-11-12 07:29:00,
2013-11-11 23:34:00,40.9,34.3,30.25,SSE,157,0.0,-999.0,77,0.00,,,0.00,0,WeatherHawk,2013-11-12 07:34:00,
2013-11-11 23:39:00,40.8,34.1,30.25,SSE,157,0.0,-999.0,77,0.00,,,0.00,0,WeatherHawk,2013-11-12 07:39:00,
2013-11-11 23:44:00,40.9,33.9,30.25,SSE,157,0.0,-999.0,76,0.00,,,0.00,0,WeatherHawk,2013-11-12 07:44:00,
2013-11-11 23:49:00,41.1,33.4,30.25,SSE,156,0.0,-999.0,74,0.00,,,0.00,1,WeatherHawk,2013-11-12 07:49:00,
2013-11-11 23:54:00,40.8,33.2,30.24,ESE,107,3.0,-999.0,74,0.00,,,0.00,0,WeatherHawk,2013-11-12 07:54:00,
2013-11-11 23:59:00,40.8,33.5,30.25,ESE,107,0.0,-999.0,75,0.00,,,0.00,0,WeatherHawk,2013-11-12 07:59:00,